Time;durP1;ratioP1;P1;durP2;ratioP2;P2;SDS_P1;SDS_P2;PMS_P1;PMS_P2;Temp;Humidity;BMP_temperature;BMP_pressure;BME280_temperature;BME280_humidity;BME280_pressure;Samples;Min_cycle;Max_cycle;Signal;HPM_P1;HPM_P2
2022/05/14 00:00:54;;;;;;;11.57;3.75;;;12.30;95.40;;;;;;5051853;28;20037;-51
2022/05/14 00:03:21;;;;;;;18.35;3.70;;;12.30;95.40;;;;;;5051758;28;20045;-54
2022/05/14 00:05:48;;;;;;;14.43;3.80;;;12.20;95.50;;;;;;5050558;28;20048;-53
2022/05/14 00:08:15;;;;;;;18.85;4.03;;;12.20;95.60;;;;;;5051746;28;20106;-49
2022/05/14 00:13:27;;;;;;;14.93;3.63;;;12.20;95.70;;;;;;5033759;28;20046;-55
2022/05/14 00:15:55;;;;;;;13.48;3.72;;;12.10;95.70;;;;;;5035938;28;20467;-54
2022/05/14 00:18:23;;;;;;;17.02;3.50;;;12.10;95.70;;;;;;5035712;28;20046;-53
2022/05/14 00:20:50;;;;;;;20.10;4.13;;;12.00;95.80;;;;;;5036183;28;20080;-50
2022/05/14 00:23:17;;;;;;;21.23;4.03;;;12.00;95.90;;;;;;5035851;28;20099;-52
2022/05/14 00:25:43;;;;;;;19.08;4.43;;;12.00;95.90;;;;;;5035834;28;20073;-52
2022/05/14 00:28:10;;;;;;;15.25;3.72;;;12.00;95.90;;;;;;5035889;28;20037;-53
2022/05/14 00:30:37;;;;;;;15.32;3.63;;;12.00;95.90;;;;;;5036141;28;20353;-46
2022/05/14 00:33:04;;;;;;;16.48;4.38;;;11.90;96.00;;;;;;5035852;28;20077;-52
2022/05/14 00:35:31;;;;;;;15.50;3.90;;;11.90;96.20;;;;;;5036157;28;20402;-55
2022/05/14 00:37:57;;;;;;;16.77;4.28;;;11.90;96.20;;;;;;5052957;28;20063;-52
2022/05/14 00:40:24;;;;;;;15.05;3.35;;;11.90;96.30;;;;;;5054992;28;20037;-50
2022/05/14 00:42:52;;;;;;;14.40;4.10;;;11.80;96.40;;;;;;5054949;28;20107;-54
2022/05/14 00:45:19;;;;;;;16.05;4.82;;;11.80;96.60;;;;;;5053634;28;20033;-58
2022/05/14 00:47:46;;;;;;;16.60;3.78;;;11.70;96.70;;;;;;5053479;28;20075;-52
2022/05/14 00:50:13;;;;;;;14.65;3.97;;;11.70;96.70;;;;;;5054942;28;20403;-55
2022/05/14 00:52:40;;;;;;;13.88;3.75;;;11.60;96.70;;;;;;5054690;28;20498;-51
2022/05/14 00:55:06;;;;;;;17.42;3.70;;;11.60;96.80;;;;;;5053478;28;20123;-48
2022/05/14 00:57:33;;;;;;;15.27;3.42;;;11.60;96.80;;;;;;5053483;28;20060;-50
2022/05/14 01:00:00;;;;;;;16.42;3.90;;;11.60;97.00;;;;;;5053314;28;20041;-46
2022/05/14 01:02:28;;;;;;;10.52;3.60;;;11.50;97.10;;;;;;5053468;28;20051;-51
2022/05/14 01:04:55;;;;;;;13.98;3.70;;;11.50;97.10;;;;;;5054604;28;20044;-49
2022/05/14 01:07:22;;;;;;;16.15;4.18;;;11.50;97.10;;;;;;5053196;28;20107;-51
2022/05/14 01:09:49;;;;;;;15.57;3.80;;;11.50;97.20;;;;;;5053350;28;20041;-48
2022/05/14 01:12:16;;;;;;;13.23;4.00;;;11.40;97.20;;;;;;5054315;28;20048;-48
2022/05/14 01:14:43;;;;;;;15.38;3.75;;;11.40;97.20;;;;;;5053125;28;20033;-48
2022/05/14 01:17:10;;;;;;;21.60;4.65;;;11.40;97.40;;;;;;5053120;28;20047;-52
2022/05/14 01:19:39;;;;;;;20.08;4.10;;;11.30;97.40;;;;;;5052921;28;20041;-48
2022/05/14 01:22:06;;;;;;;17.17;4.32;;;11.30;97.50;;;;;;5052929;28;20041;-49
2022/05/14 01:27:23;;;;;;;;;;;11.30;97.70;;;;;;5053331;28;20451;-50
2022/05/14 01:29:51;;;;;;;16.45;3.72;;;11.20;98.00;;;;;;5052805;28;20035;-45
2022/05/14 01:32:18;;;;;;;18.40;3.90;;;11.20;97.60;;;;;;5052668;28;20086;-47
2022/05/14 01:34:45;;;;;;;18.30;4.00;;;11.20;97.70;;;;;;5051705;28;20044;-47
2022/05/14 01:37:15;;;;;;;13.68;4.07;;;11.20;97.70;;;;;;5053970;28;20104;-48
2022/05/14 01:39:43;;;;;;;15.27;3.67;;;11.10;97.90;;;;;;5052482;28;20106;-50
2022/05/14 01:42:10;;;;;;;13.85;4.00;;;11.10;98.00;;;;;;5053810;28;20095;-48
2022/05/14 01:44:37;;;;;;;19.85;4.68;;;11.10;98.10;;;;;;5052553;28;20041;-51
2022/05/14 01:47:04;;;;;;;16.77;3.90;;;11.10;98.20;;;;;;5052479;28;20474;-47
2022/05/14 01:49:31;;;;;;;11.95;3.85;;;11.00;98.10;;;;;;5053681;28;20049;-47
2022/05/14 01:51:59;;;;;;;17.60;3.75;;;11.00;98.20;;;;;;5052326;28;20455;-48
2022/05/14 01:54:26;;;;;;;17.00;4.60;;;11.00;98.20;;;;;;5053532;28;20049;-53
2022/05/14 01:56:53;;;;;;;18.73;4.10;;;11.00;98.20;;;;;;5052267;28;20090;-50
2022/05/14 01:59:20;;;;;;;17.55;3.97;;;11.00;98.40;;;;;;5052212;28;20466;-49
2022/05/14 02:01:47;;;;;;;17.88;3.67;;;11.00;98.40;;;;;;5052127;28;20052;-48
2022/05/14 02:04:14;;;;;;;14.98;4.05;;;11.00;98.40;;;;;;5053494;28;20041;-45
2022/05/14 02:06:41;;;;;;;21.48;4.30;;;11.00;98.50;;;;;;5051943;28;20053;-51
2022/05/14 02:09:08;;;;;;;19.63;4.70;;;10.90;98.60;;;;;;5051913;28;20045;-46
2022/05/14 02:11:35;;;;;;;17.23;4.32;;;10.90;98.70;;;;;;5051904;28;20069;-51
2022/05/14 02:14:08;;;;;;;14.68;3.97;;;10.90;98.70;;;;;;5053205;28;20053;-47
2022/05/14 02:16:35;;;;;;;14.65;4.45;;;10.80;98.60;;;;;;5051930;28;20136;-49
2022/05/14 02:19:04;;;;;;;16.50;4.15;;;10.80;98.70;;;;;;5051749;28;20067;-48
2022/05/14 02:21:32;;;;;;;17.80;4.63;;;10.80;98.90;;;;;;5051158;28;20049;-48
2022/05/14 02:24:00;;;;;;;16.92;4.10;;;10.80;99.00;;;;;;5051933;28;20547;-50
2022/05/14 02:26:27;;;;;;;21.20;4.28;;;10.70;98.80;;;;;;5053125;28;20060;-45
2022/05/14 02:28:54;;;;;;;18.90;5.03;;;10.80;98.80;;;;;;5051795;28;20377;-49
2022/05/14 02:31:21;;;;;;;14.40;4.43;;;10.80;98.80;;;;;;5051578;28;20068;-46
2022/05/14 02:33:48;;;;;;;20.52;4.88;;;10.80;98.90;;;;;;5052922;28;20488;-48
2022/05/14 02:36:16;;;;;;;15.55;4.35;;;10.80;99.10;;;;;;5051161;28;20044;-48
2022/05/14 02:38:43;;;;;;;17.92;4.10;;;10.70;99.00;;;;;;5051581;28;20519;-49
2022/05/14 02:41:10;;;;;;;11.45;3.88;;;10.70;99.10;;;;;;5052873;28;20406;-48
2022/05/14 02:43:37;;;;;;;18.67;3.83;;;10.70;99.00;;;;;;5052718;28;20032;-51
2022/05/14 02:46:04;;;;;;;16.33;4.82;;;10.70;99.20;;;;;;5052781;28;20044;-50
2022/05/14 02:48:31;;;;;;;15.43;4.00;;;10.70;99.20;;;;;;5041936;28;20129;-51
2022/05/14 02:50:58;;;;;;;17.15;4.75;;;10.70;99.20;;;;;;5046834;28;20056;-55
2022/05/14 02:53:25;;;;;;;17.10;4.30;;;10.70;99.30;;;;;;5052481;28;20098;-50
2022/05/14 02:55:52;;;;;;;24.60;4.60;;;10.70;99.50;;;;;;5052760;28;20136;-47
2022/05/14 03:01:05;;;;;;;17.23;4.70;;;10.60;99.30;;;;;;5051164;28;20049;-49
2022/05/14 03:03:32;;;;;;;19.73;4.45;;;10.50;99.40;;;;;;5052499;28;20060;-52
2022/05/14 03:06:00;;;;;;;16.00;4.45;;;10.50;99.50;;;;;;5049900;28;20049;-49
2022/05/14 03:08:27;;;;;;;16.77;4.25;;;10.50;99.60;;;;;;5052452;28;20447;-52
2022/05/14 03:10:54;;;;;;;17.50;4.70;;;10.40;99.60;;;;;;5051212;28;20045;-51
2022/05/14 03:13:20;;;;;;;16.10;4.20;;;10.40;99.70;;;;;;5034619;28;20036;-54
2022/05/14 03:15:48;;;;;;;14.32;3.80;;;10.40;99.70;;;;;;5050938;28;20515;-49
2022/05/14 03:18:15;;;;;;;19.08;4.60;;;10.30;99.90;;;;;;5052386;28;20094;-50
2022/05/14 03:20:42;;;;;;;12.75;4.00;;;10.20;99.90;;;;;;5050944;28;20060;-49
2022/05/14 03:23:09;;;;;;;14.57;3.72;;;10.20;99.90;;;;;;5050995;28;20051;-55
2022/05/14 03:25:36;;;;;;;11.23;4.32;;;10.20;99.90;;;;;;5051021;28;20095;-51
2022/05/14 03:28:03;;;;;;;14.70;4.05;;;10.10;99.90;;;;;;5050994;28;20090;-48
2022/05/14 03:30:30;;;;;;;18.55;3.97;;;10.10;99.90;;;;;;5050993;28;20041;-50
2022/05/14 03:32:57;;;;;;;14.25;4.65;;;10.10;99.90;;;;;;5052186;28;20041;-49
2022/05/14 03:35:24;;;;;;;12.60;3.75;;;10.00;99.90;;;;;;5050979;28;20068;-52
2022/05/14 03:37:50;;;;;;;18.20;5.05;;;10.00;99.90;;;;;;5050894;28;20045;-54
2022/05/14 03:40:17;;;;;;;16.30;3.80;;;9.90;99.90;;;;;;5050807;28;20075;-54
2022/05/14 03:42:45;;;;;;;16.50;4.32;;;9.90;99.90;;;;;;5052077;28;20041;-52
2022/05/14 03:45:12;;;;;;;14.80;4.85;;;9.90;99.90;;;;;;5051159;28;20073;-47
2022/05/14 03:47:39;;;;;;;14.45;4.25;;;9.80;99.90;;;;;;5050868;28;20037;-51
2022/05/14 03:50:06;;;;;;;21.00;4.03;;;9.80;99.90;;;;;;5056045;28;20512;-53
2022/05/14 03:52:33;;;;;;;12.10;3.80;;;9.80;99.90;;;;;;5054555;28;20411;-50
2022/05/14 03:54:59;;;;;;;16.00;4.35;;;9.80;99.90;;;;;;5055934;28;20098;-49
2022/05/14 03:57:26;;;;;;;18.42;4.63;;;9.80;99.90;;;;;;5054565;28;20041;-50
2022/05/14 03:59:53;;;;;;;18.65;4.40;;;9.80;99.90;;;;;;5054477;28;20048;-52
2022/05/14 04:02:21;;;;;;;18.67;4.30;;;9.70;99.90;;;;;;5054460;28;20037;-51
2022/05/14 04:04:48;;;;;;;15.15;4.20;;;9.70;99.90;;;;;;5054469;28;20041;-50
2022/05/14 04:07:18;;;;;;;13.40;4.10;;;9.70;99.90;;;;;;5053178;28;20094;-50
2022/05/14 04:09:45;;;;;;;17.75;4.20;;;9.70;99.90;;;;;;5054201;28;20037;-49
2022/05/14 04:12:12;;;;;;;20.55;4.93;;;9.70;99.90;;;;;;5054170;28;20056;-49
2022/05/14 04:14:38;;;;;;;14.00;4.13;;;9.70;99.90;;;;;;5055587;28;20052;-53
2022/05/14 04:17:05;;;;;;;18.40;4.00;;;9.70;99.90;;;;;;5055569;28;20442;-49
2022/05/14 04:19:32;;;;;;;22.42;4.88;;;9.70;99.90;;;;;;5054151;28;20041;-51
2022/05/14 04:22:00;;;;;;;17.40;4.72;;;9.80;99.90;;;;;;5054006;28;20132;-53
2022/05/14 04:24:27;;;;;;;20.50;4.97;;;9.80;99.90;;;;;;5053990;28;20500;-52
2022/05/14 04:26:54;;;;;;;12.50;4.22;;;9.80;99.90;;;;;;5054052;28;20103;-48
2022/05/14 04:29:22;;;;;;;12.82;4.15;;;9.90;99.90;;;;;;5053987;28;20045;-51
2022/05/14 04:31:49;;;;;;;16.50;4.25;;;10.00;99.90;;;;;;5053882;28;20056;-49
2022/05/14 04:34:18;;;;;;;17.10;4.07;;;10.00;99.90;;;;;;5053901;28;20100;-56
2022/05/14 04:36:45;;;;;;;17.98;4.53;;;10.10;99.90;;;;;;5053766;28;20140;-53
2022/05/14 04:39:11;;;;;;;19.25;4.50;;;10.10;99.90;;;;;;5053611;28;20377;-53
2022/05/14 04:41:38;;;;;;;15.10;4.25;;;10.20;99.90;;;;;;5053576;28;20045;-48
2022/05/14 04:44:11;;;;;;;14.65;4.18;;;10.30;99.90;;;;;;5053755;28;20044;-49
2022/05/14 04:46:38;;;;;;;15.30;4.22;;;10.40;99.90;;;;;;5054913;28;20091;-51
2022/05/14 04:49:05;;;;;;;14.73;3.90;;;10.50;99.90;;;;;;5053612;28;20057;-49
2022/05/14 04:51:32;;;;;;;14.20;4.40;;;10.60;99.90;;;;;;5053383;28;20041;-51
2022/05/14 04:53:59;;;;;;;10.63;3.03;;;10.80;99.90;;;;;;5053484;28;20071;-54
2022/05/14 04:56:26;;;;;;;17.45;4.38;;;10.90;99.90;;;;;;5041944;28;20050;-52
2022/05/14 04:58:55;;;;;;;14.02;4.18;;;10.90;99.90;;;;;;5033980;28;20050;-53
2022/05/14 05:01:22;;;;;;;14.30;4.72;;;10.90;99.90;;;;;;5034089;28;20084;-49
2022/05/14 05:03:49;;;;;;;15.93;4.13;;;11.00;99.90;;;;;;5053321;28;20120;-49
2022/05/14 05:06:18;;;;;;;18.52;4.40;;;11.00;99.90;;;;;;5052104;28;20041;-52
2022/05/14 05:08:45;;;;;;;19.45;4.05;;;11.00;99.90;;;;;;5053135;28;20103;-50
2022/05/14 05:11:12;;;;;;;18.50;4.47;;;11.00;99.90;;;;;;5054539;28;20067;-53
2022/05/14 05:13:39;;;;;;;14.73;3.95;;;11.00;99.90;;;;;;5054320;28;20045;-49
2022/05/14 05:16:05;;;;;;;16.52;4.43;;;11.00;99.90;;;;;;5054379;28;20074;-48
2022/05/14 05:18:33;;;;;;;20.60;4.40;;;11.10;99.90;;;;;;5054287;28;20411;-49
2022/05/14 05:20:59;;;;;;;15.68;3.72;;;11.10;99.90;;;;;;5054106;28;20072;-45
2022/05/14 05:23:26;;;;;;;12.77;3.65;;;11.10;99.90;;;;;;5054118;28;20043;-52
2022/05/14 05:25:53;;;;;;;14.00;4.05;;;11.10;99.90;;;;;;5054217;28;20545;-52
2022/05/14 05:28:20;;;;;;;12.02;3.65;;;11.20;99.90;;;;;;5053438;28;20045;-50
2022/05/14 05:30:47;;;;;;;14.10;4.40;;;11.20;99.90;;;;;;5034964;28;20076;-50
2022/05/14 05:33:13;;;;;;;19.48;5.28;;;11.20;99.90;;;;;;5034816;28;20453;-49
2022/05/14 05:35:40;;;;;;;13.80;4.10;;;11.20;99.90;;;;;;5034785;28;20048;-48
2022/05/14 05:38:07;;;;;;;16.48;4.60;;;11.30;99.90;;;;;;5034913;28;20049;-50
2022/05/14 05:40:34;;;;;;;19.90;4.40;;;11.30;99.90;;;;;;5034694;28;20061;-55
2022/05/14 05:43:00;;;;;;;13.48;4.00;;;11.30;99.90;;;;;;5034760;28;20041;-56
2022/05/14 05:45:29;;;;;;;15.95;4.78;;;11.30;99.90;;;;;;5034747;28;20040;-47
2022/05/14 05:47:56;;;;;;;14.13;4.63;;;11.40;99.90;;;;;;5034613;28;20378;-53
2022/05/14 05:50:23;;;;;;;16.98;4.18;;;11.40;99.90;;;;;;5033294;28;20103;-50
2022/05/14 05:52:51;;;;;;;17.85;4.95;;;11.50;99.90;;;;;;5034446;28;20046;-54
2022/05/14 05:58:03;;;;;;;14.25;4.18;;;11.60;99.90;;;;;;5047745;28;20077;-47
2022/05/14 06:00:30;;;;;;;21.25;4.50;;;11.60;99.90;;;;;;5053276;28;20044;-48
2022/05/14 06:02:57;;;;;;;20.38;4.90;;;11.60;99.90;;;;;;5053466;28;20457;-49
2022/05/14 06:05:23;;;;;;;12.93;4.50;;;11.60;99.90;;;;;;5034269;28;20452;-51
2022/05/14 06:07:50;;;;;;;17.48;4.93;;;11.70;99.90;;;;;;5039753;28;20045;-54
2022/05/14 06:10:18;;;;;;;19.38;4.57;;;11.70;99.90;;;;;;5033893;28;20084;-48
2022/05/14 06:12:46;;;;;;;19.75;4.43;;;11.80;99.90;;;;;;5033410;28;20041;-50
2022/05/14 06:15:13;;;;;;;15.45;4.70;;;11.80;99.90;;;;;;5033932;28;20042;-49
2022/05/14 06:17:44;;;;;;;14.27;4.70;;;11.80;99.90;;;;;;5033870;28;20045;-50
2022/05/14 06:20:11;;;;;;;22.75;5.18;;;11.90;99.90;;;;;;5033505;28;20041;-56
2022/05/14 06:22:37;;;;;;;15.60;4.30;;;12.00;99.90;;;;;;5032552;28;20054;-55
2022/05/14 06:25:04;;;;;;;16.02;4.95;;;12.00;99.90;;;;;;5033717;28;20091;-51
2022/05/14 06:27:31;;;;;;;20.85;4.55;;;12.00;99.90;;;;;;5033459;28;20436;-52
2022/05/14 06:29:58;;;;;;;19.70;4.75;;;12.10;99.90;;;;;;5033634;28;20389;-46
2022/05/14 06:32:24;;;;;;;18.60;5.38;;;12.10;99.90;;;;;;5033480;28;20099;-48
2022/05/14 06:34:51;;;;;;;17.00;5.10;;;12.10;99.90;;;;;;5033575;28;20037;-54
2022/05/14 06:37:18;;;;;;;19.88;5.80;;;12.30;99.90;;;;;;5038776;28;20041;-50
2022/05/14 06:39:45;;;;;;;21.23;5.32;;;12.30;99.90;;;;;;5033568;28;20447;-52
2022/05/14 06:42:11;;;;;;;20.63;5.22;;;12.40;99.90;;;;;;5033150;28;20041;-53
2022/05/14 06:44:38;;;;;;;14.85;4.90;;;12.50;99.90;;;;;;5033391;28;20151;-54
2022/05/14 06:47:05;;;;;;;20.70;5.32;;;12.50;99.90;;;;;;5033327;28;20040;-54
2022/05/14 06:49:36;;;;;;;22.00;5.72;;;12.60;99.90;;;;;;5032618;28;20053;-53
2022/05/14 06:52:03;;;;;;;22.40;5.68;;;12.70;99.90;;;;;;5033513;28;20489;-54
2022/05/14 06:54:29;;;;;;;17.50;5.68;;;12.90;99.90;;;;;;5033243;28;20412;-55
2022/05/14 06:56:56;;;;;;;24.15;6.35;;;13.00;99.80;;;;;;5052711;28;20049;-55
2022/05/14 06:59:23;;;;;;;23.23;6.38;;;13.00;99.70;;;;;;5051699;28;20148;-52
2022/05/14 07:01:50;;;;;;;22.73;6.55;;;13.10;99.50;;;;;;5052484;28;20040;-53
2022/05/14 07:07:03;;;;;;;19.42;5.57;;;13.20;99.40;;;;;;5051559;28;20059;-49
2022/05/14 07:09:30;;;;;;;18.33;5.93;;;13.40;99.00;;;;;;5034737;28;20048;-48
2022/05/14 07:11:57;;;;;;;23.73;7.18;;;13.40;99.00;;;;;;5052445;28;20052;-48
2022/05/14 07:14:23;;;;;;;19.85;5.82;;;13.50;98.90;;;;;;5052478;28;20045;-45
2022/05/14 07:16:50;;;;;;;17.83;5.68;;;13.50;99.00;;;;;;5052346;28;20107;-50
2022/05/14 07:19:17;;;;;;;20.63;6.10;;;13.60;99.00;;;;;;5052354;28;20158;-51
2022/05/14 07:21:44;;;;;;;17.27;5.78;;;13.70;98.50;;;;;;5052106;28;20047;-48
2022/05/14 07:24:10;;;;;;;22.73;6.15;;;13.70;98.60;;;;;;5056584;28;20485;-54
2022/05/14 07:26:37;;;;;;;21.98;6.78;;;13.80;98.60;;;;;;5056375;28;20044;-54
2022/05/14 07:29:04;;;;;;;20.88;5.97;;;13.80;98.30;;;;;;5056462;28;20438;-47
2022/05/14 07:31:31;;;;;;;21.73;5.90;;;13.90;98.00;;;;;;5056334;28;20045;-51
2022/05/14 07:33:58;;;;;;;29.58;7.00;;;13.90;98.30;;;;;;5056288;28;20546;-50
2022/05/14 07:36:25;;;;;;;20.75;6.15;;;13.90;98.10;;;;;;5056123;28;20047;-49
2022/05/14 07:38:51;;;;;;;21.92;6.00;;;13.90;98.40;;;;;;5056202;28;20049;-52
2022/05/14 07:41:18;;;;;;;18.45;6.22;;;13.90;98.10;;;;;;5056076;28;20041;-50
2022/05/14 07:43:46;;;;;;;21.30;6.03;;;13.90;97.90;;;;;;5055026;28;20056;-47
2022/05/14 07:46:14;;;;;;;16.50;5.65;;;14.00;98.00;;;;;;5055976;28;20558;-49
2022/05/14 07:48:40;;;;;;;22.55;6.38;;;13.90;97.70;;;;;;5041990;28;20041;-51
2022/05/14 07:51:07;;;;;;;17.50;6.22;;;13.80;97.90;;;;;;5036790;28;20489;-49
2022/05/14 07:53:34;;;;;;;23.80;7.05;;;13.80;97.70;;;;;;5036692;28;20037;-57
2022/05/14 07:56:01;;;;;;;20.02;6.40;;;13.70;98.00;;;;;;5036882;28;20128;-49
2022/05/14 07:58:28;;;;;;;23.98;5.80;;;13.70;97.90;;;;;;5036502;28;20049;-49
2022/05/14 08:00:55;;;;;;;26.25;5.90;;;13.70;98.00;;;;;;5036580;28;20041;-54
2022/05/14 08:03:24;;;;;;;24.88;6.18;;;13.70;97.90;;;;;;5050617;28;20033;-52
2022/05/14 08:05:52;;;;;;;22.23;5.75;;;13.70;97.90;;;;;;5046707;28;20065;-48
2022/05/14 08:08:19;;;;;;;21.05;5.47;;;13.70;97.80;;;;;;5046020;28;20065;-54
2022/05/14 08:10:45;;;;;;;21.55;6.18;;;13.80;97.90;;;;;;5036414;28;20504;-50
2022/05/14 08:13:15;;;;;;;24.52;5.50;;;13.80;97.70;;;;;;5036328;28;20477;-52
2022/05/14 08:15:42;;;;;;;16.73;5.57;;;13.90;97.60;;;;;;5036312;28;20049;-50
2022/05/14 08:18:09;;;;;;;20.23;5.95;;;13.80;97.50;;;;;;5036203;28;20049;-55
2022/05/14 08:20:36;;;;;;;22.10;6.22;;;13.80;97.90;;;;;;5036395;28;20455;-51
2022/05/14 08:25:48;;;;;;;22.85;5.57;;;13.80;97.70;;;;;;5036268;28;20046;-53
2022/05/14 08:28:15;;;;;;;16.92;5.38;;;13.90;97.40;;;;;;5036313;28;20096;-53
2022/05/14 08:30:42;;;;;;;19.23;5.80;;;13.90;97.60;;;;;;5035942;28;20045;-49
2022/05/14 08:33:09;;;;;;;17.38;5.53;;;14.10;97.60;;;;;;5035880;28;20087;-55
2022/05/14 08:35:35;;;;;;;25.30;6.38;;;14.20;97.30;;;;;;5035363;28;20050;-49
2022/05/14 08:38:02;;;;;;;17.88;5.88;;;14.20;97.00;;;;;;5043354;28;20072;-52
2022/05/14 08:40:29;;;;;;;19.35;5.40;;;14.30;97.20;;;;;;5054911;28;20053;-52
2022/05/14 08:42:55;;;;;;;17.45;5.95;;;14.40;97.10;;;;;;5054766;28;20041;-54
2022/05/14 08:45:22;;;;;;;21.17;6.30;;;14.50;96.90;;;;;;5054877;28;20049;-56
2022/05/14 08:47:54;;;;;;;18.80;6.30;;;14.60;96.70;;;;;;5054862;28;20044;-54
2022/05/14 08:50:21;;;;;;;27.15;6.45;;;14.60;96.60;;;;;;5054871;28;20033;-52
2022/05/14 08:52:48;;;;;;;30.42;7.38;;;14.60;96.40;;;;;;5054691;28;20476;-55
2022/05/14 08:55:15;;;;;;;19.73;6.28;;;14.60;96.50;;;;;;5054657;28;20491;-48
2022/05/14 08:57:42;;;;;;;21.00;6.13;;;14.70;96.50;;;;;;5054030;28;20047;-53
2022/05/14 09:00:09;;;;;;;16.65;5.80;;;14.80;96.60;;;;;;5053975;28;20148;-53
2022/05/14 09:02:36;;;;;;;21.15;6.10;;;14.90;96.40;;;;;;5054453;28;20061;-51
2022/05/14 09:05:03;;;;;;;21.98;6.35;;;15.10;96.30;;;;;;5054535;28;20511;-48
2022/05/14 09:07:30;;;;;;;18.02;5.60;;;15.30;95.80;;;;;;5052968;28;20521;-52
2022/05/14 09:10:02;;;;;;;17.90;4.65;;;15.40;95.50;;;;;;5054317;28;20037;-53
2022/05/14 09:12:29;;;;;;;15.75;5.07;;;15.50;94.60;;;;;;5054130;28;20037;-48
2022/05/14 09:14:56;;;;;;;22.63;6.43;;;15.50;94.40;;;;;;5054198;28;20056;-53
2022/05/14 09:17:22;;;;;;;16.52;5.47;;;15.40;94.60;;;;;;5054244;28;20044;-51
2022/05/14 09:19:49;;;;;;;21.42;5.90;;;15.40;94.90;;;;;;5054105;28;20045;-51
2022/05/14 09:22:20;;;;;;;16.60;5.63;;;15.50;95.00;;;;;;5053608;28;20076;-51
2022/05/14 09:24:47;;;;;;;20.02;4.80;;;15.60;94.50;;;;;;5053815;28;20037;-53
2022/05/14 09:27:14;;;;;;;15.98;5.28;;;15.80;94.40;;;;;;5053927;28;20048;-54
2022/05/14 09:29:40;;;;;;;21.67;5.63;;;15.80;93.80;;;;;;5053886;28;20481;-51
2022/05/14 09:32:07;;;;;;;20.77;4.78;;;15.80;93.70;;;;;;5053865;28;20052;-52
2022/05/14 09:34:34;;;;;;;19.48;5.22;;;15.70;93.70;;;;;;5054047;28;20042;-49
2022/05/14 09:37:00;;;;;;;20.25;5.10;;;15.70;93.40;;;;;;5053920;28;20107;-55
2022/05/14 09:39:28;;;;;;;14.98;4.70;;;15.70;93.50;;;;;;5053727;28;20065;-52
2022/05/14 09:41:56;;;;;;;20.35;5.03;;;15.70;93.20;;;;;;5053691;28;20049;-53
2022/05/14 09:44:24;;;;;;;16.67;4.18;;;15.70;93.70;;;;;;5053885;28;20037;-53
2022/05/14 09:46:52;;;;;;;13.93;3.70;;;15.80;92.20;;;;;;5052625;28;20040;-53
2022/05/14 09:49:19;;;;;;;13.48;3.60;;;15.80;92.10;;;;;;5053715;28;20044;-55
2022/05/14 09:51:46;;;;;;;14.90;4.00;;;15.90;91.90;;;;;;5053505;28;20068;-55
2022/05/14 09:54:13;;;;;;;13.05;3.88;;;16.00;91.70;;;;;;5053684;28;20079;-52
2022/05/14 09:56:40;;;;;;;17.05;4.40;;;15.90;91.60;;;;;;5053543;28;20045;-55
2022/05/14 09:59:07;;;;;;;13.95;3.78;;;15.90;92.00;;;;;;5053816;28;20377;-49
2022/05/14 10:01:34;;;;;;;14.57;4.20;;;16.00;92.20;;;;;;5053402;28;20045;-52
2022/05/14 10:04:01;;;;;;;18.58;4.18;;;16.20;92.20;;;;;;5053452;28;20036;-50
2022/05/14 10:06:28;;;;;;;12.77;3.88;;;16.20;91.40;;;;;;5053083;28;20491;-52
2022/05/14 10:08:55;;;;;;;12.88;3.92;;;16.20;91.40;;;;;;5053467;28;20037;-51
2022/05/14 10:11:21;;;;;;;17.80;4.78;;;16.20;91.50;;;;;;5053291;28;20040;-54
2022/05/14 10:13:48;;;;;;;17.15;4.97;;;16.20;91.20;;;;;;5053281;28;20113;-53
2022/05/14 10:16:15;;;;;;;16.10;4.03;;;16.20;91.40;;;;;;5053186;28;20049;-49
2022/05/14 10:18:42;;;;;;;15.80;3.88;;;16.20;91.20;;;;;;5053257;28;20045;-49
2022/05/14 10:21:08;;;;;;;19.13;4.32;;;16.20;91.70;;;;;;5052896;28;20041;-48
2022/05/14 10:29:06;;;;;;;14.25;3.75;;;16.50;91.10;;;;;;5053027;28;20049;-48
2022/05/14 10:31:33;;;;;;;15.93;4.13;;;16.50;90.50;;;;;;5052886;28;20063;-45
2022/05/14 10:33:59;;;;;;;12.93;3.80;;;16.60;90.50;;;;;;5051964;28;20068;-49
2022/05/14 10:36:26;;;;;;;17.17;4.45;;;16.80;90.40;;;;;;5052857;28;20503;-50
2022/05/14 10:38:53;;;;;;;13.75;4.05;;;16.90;90.10;;;;;;5052817;28;20091;-47
2022/05/14 10:41:20;;;;;;;13.65;4.43;;;17.00;90.20;;;;;;5052716;28;20071;-47
2022/05/14 10:43:46;;;;;;;16.33;4.03;;;16.90;88.90;;;;;;5052782;28;20048;-46
2022/05/14 10:46:13;;;;;;;13.60;4.50;;;16.90;89.80;;;;;;5052654;28;20037;-49
2022/05/14 10:48:41;;;;;;;13.40;3.92;;;17.00;88.90;;;;;;5052707;28;20044;-52
2022/05/14 10:51:08;;;;;;;13.57;3.83;;;17.20;88.00;;;;;;5052781;28;20098;-47
2022/05/14 10:53:35;;;;;;;10.38;3.20;;;17.20;88.60;;;;;;5052507;28;20403;-51
2022/05/14 10:56:02;;;;;;;11.05;3.58;;;17.40;86.50;;;;;;5052587;28;20069;-46
2022/05/14 10:58:43;;;;;;;13.73;4.00;;;17.50;85.70;;;;;;5052236;28;20458;-48
2022/05/14 11:01:22;;;;;;;10.10;4.65;;;17.50;85.60;;;;;;5051062;28;20065;-47
2022/05/14 11:03:50;;;;;;;17.35;3.95;;;17.60;85.00;;;;;;5052496;28;20045;-46
2022/05/14 11:06:21;;;;;;;9.18;4.45;;;17.70;83.40;;;;;;5052300;28;20072;-48
2022/05/14 11:08:49;;;;;;;13.07;3.63;;;17.70;83.20;;;;;;5051072;28;20045;-49
2022/05/14 11:11:15;;;;;;;11.85;4.35;;;17.70;84.40;;;;;;5052582;28;20492;-48
2022/05/14 11:13:42;;;;;;;11.30;3.53;;;17.80;82.50;;;;;;5054439;28;20073;-48
2022/05/14 11:16:10;;;;;;;11.80;3.55;;;17.80;80.70;;;;;;5053081;28;20033;-48
2022/05/14 11:18:37;;;;;;;14.73;4.20;;;17.80;81.50;;;;;;5052328;28;20120;-47
2022/05/14 11:21:04;;;;;;;13.90;3.85;;;17.80;82.80;;;;;;5052386;28;20392;-47
2022/05/14 11:23:31;;;;;;;10.18;3.63;;;17.70;82.70;;;;;;5041116;28;20091;-48
2022/05/14 11:25:58;;;;;;;15.90;4.00;;;17.70;82.90;;;;;;5033277;28;20434;-47
2022/05/14 11:28:29;;;;;;;13.88;3.88;;;17.80;81.40;;;;;;5033204;28;20092;-47
2022/05/14 11:30:55;;;;;;;11.88;3.40;;;17.70;83.10;;;;;;5033207;28;20060;-52
2022/05/14 11:33:22;;;;;;;11.27;4.00;;;17.80;83.10;;;;;;5033077;28;20053;-53
2022/05/14 11:35:49;;;;;;;12.98;3.80;;;17.90;83.10;;;;;;5033060;28;20121;-51
2022/05/14 11:38:16;;;;;;;12.98;3.70;;;18.10;81.60;;;;;;5040031;28;20049;-53
2022/05/14 11:40:43;;;;;;;10.93;3.67;;;18.30;80.30;;;;;;5052100;28;20041;-47
2022/05/14 11:43:09;;;;;;;11.48;3.60;;;18.30;79.80;;;;;;5052003;28;20037;-51
2022/05/14 11:45:36;;;;;;;11.55;3.75;;;18.30;78.50;;;;;;5052345;28;20033;-48
2022/05/14 11:48:03;;;;;;;13.15;3.72;;;18.30;79.30;;;;;;5051006;28;20072;-47
2022/05/14 11:50:36;;;;;;;12.55;3.75;;;18.10;79.10;;;;;;5049794;28;20515;-47
2022/05/14 11:53:02;;;;;;;8.35;3.17;;;18.10;79.80;;;;;;5051926;28;20064;-52
2022/05/14 11:55:29;;;;;;;13.63;3.55;;;18.10;81.10;;;;;;5050737;28;20370;-52
2022/05/14 11:57:56;;;;;;;8.13;3.25;;;18.30;80.20;;;;;;5037607;28;20107;-50
2022/05/14 12:00:22;;;;;;;15.00;3.75;;;18.40;79.60;;;;;;5033021;28;20084;-48
2022/05/14 12:02:49;;;;;;;13.70;4.03;;;18.40;79.00;;;;;;5039905;28;20095;-48
2022/05/14 12:05:16;;;;;;;12.73;4.35;;;18.50;79.40;;;;;;5050607;28;20045;-47
2022/05/14 12:07:43;;;;;;;9.13;2.95;;;18.60;77.60;;;;;;5032652;28;20131;-54
2022/05/14 12:10:10;;;;;;;14.07;4.13;;;18.50;77.50;;;;;;5035218;28;20396;-50
2022/05/14 12:12:37;;;;;;;13.18;3.65;;;18.50;78.90;;;;;;5036480;28;20575;-47
2022/05/14 12:15:04;;;;;;;13.20;3.88;;;18.60;79.00;;;;;;5036517;28;20104;-50
2022/05/14 12:17:30;;;;;;;11.38;3.45;;;18.70;78.80;;;;;;5036398;28;20489;-49
2022/05/14 12:19:57;;;;;;;10.27;3.13;;;18.90;77.00;;;;;;5036195;28;20103;-47
2022/05/14 12:22:25;;;;;;;11.98;3.47;;;18.90;75.90;;;;;;5036100;28;20045;-49
2022/05/14 12:24:52;;;;;;;13.23;3.50;;;18.90;76.40;;;;;;5036270;28;20042;-47
2022/05/14 12:27:19;;;;;;;12.30;3.72;;;18.90;75.50;;;;;;5035812;28;20508;-49
2022/05/14 12:29:45;;;;;;;12.32;3.90;;;19.00;76.90;;;;;;5048579;28;20044;-51
2022/05/14 12:35:03;;;;;;;;;;;19.00;77.80;;;;;;5054325;28;20496;-47
2022/05/14 12:37:29;;;;;;;20.85;4.18;;;19.10;76.60;;;;;;5054900;28;19921;-52
2022/05/14 12:39:56;;;;;;;12.65;4.03;;;19.20;77.70;;;;;;5054879;28;20492;-53
2022/05/14 12:42:23;;;;;;;12.90;3.70;;;19.00;76.70;;;;;;5054704;28;20044;-50
2022/05/14 12:44:56;;;;;;;11.05;4.05;;;19.00;76.80;;;;;;5054885;28;20065;-49
2022/05/14 12:47:23;;;;;;;12.32;3.55;;;18.80;77.50;;;;;;5055001;28;20037;-53
2022/05/14 12:49:49;;;;;;;14.27;3.83;;;18.90;77.70;;;;;;5054870;28;20083;-48
2022/05/14 12:52:16;;;;;;;9.50;3.35;;;19.00;78.20;;;;;;5054823;28;20048;-52
2022/05/14 12:54:43;;;;;;;13.80;3.90;;;19.20;78.40;;;;;;5054784;28;20512;-51
2022/05/14 12:57:10;;;;;;;10.40;3.53;;;19.30;77.90;;;;;;5053551;28;20051;-48
2022/05/14 12:59:37;;;;;;;11.20;3.67;;;19.30;77.80;;;;;;5054580;28;20045;-55
2022/05/14 13:02:04;;;;;;;13.25;3.80;;;19.40;77.90;;;;;;5054653;28;20045;-50